Time;durP1;ratioP1;P1;durP2;ratioP2;P2;SDS_P1;SDS_P2;PMS_P1;PMS_P2;Temp;Humidity;BMP_temperature;BMP_pressure;BME280_temperature;BME280_humidity;BME280_pressure;Samples;Min_cycle;Max_cycle;Signal;HPM_P1;HPM_P2
2021/05/05 00:02:00;;;;;;;1.63;0.70;;;21.40;53.70;;;;;;5142938;27;20449;-35
2021/05/05 00:04:31;;;;;;;2.10;0.60;;;21.60;50.10;;;;;;5147770;27;20841;-35
2021/05/05 00:07:01;;;;;;;0.83;0.60;;;21.50;47.10;;;;;;5145920;27;20516;-35
2021/05/05 00:09:31;;;;;;;0.73;0.70;;;21.30;51.50;;;;;;5146198;27;20505;-35
2021/05/05 00:12:01;;;;;;;1.07;0.73;;;21.50;52.80;;;;;;5145779;27;20411;-35
2021/05/05 00:14:32;;;;;;;1.00;0.60;;;21.50;51.90;;;;;;5146838;27;20415;-35
2021/05/05 00:17:02;;;;;;;1.03;0.93;;;21.40;50.70;;;;;;5146177;27;20449;-35
2021/05/05 00:19:32;;;;;;;2.03;0.80;;;21.40;51.20;;;;;;5146695;27;20900;-34
2021/05/05 00:22:03;;;;;;;0.60;0.60;;;21.30;49.60;;;;;;5146452;27;20431;-34
2021/05/05 00:24:33;;;;;;;0.70;0.63;;;21.30;46.50;;;;;;5145997;27;20895;-34
2021/05/05 00:27:03;;;;;;;1.23;0.80;;;21.10;45.10;;;;;;5146028;27;20457;-34
2021/05/05 00:29:34;;;;;;;1.20;0.90;;;20.90;46.50;;;;;;5146125;27;20431;-35
2021/05/05 00:32:06;;;;;;;1.47;1.00;;;20.80;49.00;;;;;;5145826;27;20551;-35
2021/05/05 00:34:36;;;;;;;1.77;1.67;;;20.80;48.80;;;;;;5146211;27;20560;-34
2021/05/05 00:37:06;;;;;;;0.97;0.97;;;20.70;51.10;;;;;;5145857;27;20470;-34
2021/05/05 00:39:36;;;;;;;1.20;1.10;;;20.50;52.00;;;;;;5138433;27;20465;-34
2021/05/05 00:42:08;;;;;;;0.90;0.90;;;20.40;52.80;;;;;;5145184;27;20465;-34
2021/05/05 00:44:39;;;;;;;1.57;1.17;;;20.40;50.00;;;;;;5146092;27;20449;-34
2021/05/05 00:47:09;;;;;;;1.03;0.70;;;20.40;51.90;;;;;;5145297;27;20469;-33
2021/05/05 00:49:40;;;;;;;1.33;1.07;;;20.40;51.10;;;;;;5145524;27;20444;-33
2021/05/05 00:52:10;;;;;;;1.47;0.93;;;20.20;52.40;;;;;;5145060;27;20434;-33
2021/05/05 00:54:40;;;;;;;2.97;0.90;;;20.20;54.40;;;;;;5146081;27;20472;-32
2021/05/05 00:57:11;;;;;;;1.50;1.20;;;20.30;53.90;;;;;;5144179;27;20453;-33
2021/05/05 00:59:43;;;;;;;2.50;0.80;;;20.20;54.60;;;;;;5138265;27;20468;-34
2021/05/05 01:02:13;;;;;;;1.73;1.23;;;20.10;54.60;;;;;;5145403;27;20488;-33
2021/05/05 01:04:43;;;;;;;2.80;1.63;;;20.10;54.70;;;;;;5145627;27;20439;-33
2021/05/05 01:07:13;;;;;;;2.03;0.80;;;20.10;54.20;;;;;;5145102;27;20451;-34
2021/05/05 01:09:46;;;;;;;3.30;1.20;;;20.00;55.30;;;;;;5146206;27;20449;-34
2021/05/05 01:12:17;;;;;;;1.40;1.10;;;20.00;54.40;;;;;;5144865;27;20426;-34
2021/05/05 01:14:49;;;;;;;1.40;1.30;;;20.10;53.80;;;;;;5145906;27;20445;-33
2021/05/05 01:17:20;;;;;;;1.13;1.03;;;20.00;53.60;;;;;;5145205;27;20440;-33
2021/05/05 01:19:50;;;;;;;2.80;1.33;;;19.90;55.60;;;;;;5145040;27;20493;-33
2021/05/05 01:22:22;;;;;;;2.13;1.20;;;19.80;54.30;;;;;;5144995;27;20442;-32
2021/05/05 01:24:53;;;;;;;1.80;0.90;;;19.70;53.80;;;;;;5145253;27;20411;-33
2021/05/05 01:27:23;;;;;;;0.80;0.80;;;19.80;53.20;;;;;;5144297;27;20513;-34
2021/05/05 01:29:53;;;;;;;1.47;0.70;;;19.80;53.10;;;;;;5144995;27;20450;-34
2021/05/05 01:32:23;;;;;;;0.80;0.70;;;19.70;54.90;;;;;;5134319;27;20427;-34
2021/05/05 01:34:53;;;;;;;1.40;1.00;;;19.60;56.60;;;;;;5144642;27;20532;-34
2021/05/05 01:37:24;;;;;;;2.60;1.03;;;19.60;53.70;;;;;;5144571;27;20452;-33
2021/05/05 01:39:54;;;;;;;2.03;1.27;;;19.70;55.50;;;;;;5145119;27;20428;-34
2021/05/05 01:42:43;;;;;;;1.60;1.50;;;19.70;55.90;;;;;;5143704;27;20488;-34
2021/05/05 01:45:15;;;;;;;1.17;1.07;;;19.60;56.50;;;;;;5144540;27;20578;-35
2021/05/05 01:47:45;;;;;;;1.47;1.20;;;19.60;56.60;;;;;;5144747;27;20564;-34
2021/05/05 01:50:15;;;;;;;1.53;1.43;;;19.40;57.10;;;;;;5128036;27;20449;-34
2021/05/05 01:52:46;;;;;;;2.00;1.30;;;19.40;55.00;;;;;;5144664;27;20466;-35
2021/05/05 01:55:17;;;;;;;3.80;1.20;;;19.40;55.70;;;;;;5145340;27;20521;-34
2021/05/05 01:57:47;;;;;;;3.07;1.33;;;19.40;57.20;;;;;;5143634;27;20423;-34
2021/05/05 02:00:20;;;;;;;2.87;1.53;;;19.30;57.50;;;;;;5127061;27;20543;-35
2021/05/05 02:02:50;;;;;;;2.00;1.30;;;19.30;58.20;;;;;;5142719;27;20445;-35
2021/05/05 02:05:21;;;;;;;1.20;1.10;;;19.20;57.30;;;;;;5143763;27;20482;-34
2021/05/05 02:07:52;;;;;;;1.60;1.50;;;19.20;59.90;;;;;;5144100;27;20490;-35
2021/05/05 02:10:22;;;;;;;2.03;1.80;;;19.00;62.50;;;;;;5130670;27;20820;-34
2021/05/05 02:12:53;;;;;;;1.97;1.77;;;18.90;62.40;;;;;;5143271;27;20760;-34
2021/05/05 02:15:23;;;;;;;3.53;1.77;;;18.80;63.70;;;;;;5144087;27;20452;-34
2021/05/05 02:17:53;;;;;;;1.97;1.57;;;18.80;64.50;;;;;;5144340;27;20441;-34
2021/05/05 02:20:25;;;;;;;1.83;1.60;;;18.70;66.00;;;;;;5143364;27;20527;-33
2021/05/05 02:22:56;;;;;;;2.60;1.90;;;18.70;66.20;;;;;;5143353;27;20547;-33
2021/05/05 02:25:26;;;;;;;2.20;2.00;;;18.60;67.50;;;;;;5144221;27;20415;-33
2021/05/05 02:27:56;;;;;;;2.20;1.60;;;18.70;67.00;;;;;;5142821;27;20448;-34
2021/05/05 02:30:27;;;;;;;2.33;1.37;;;18.60;68.70;;;;;;5143957;27;20475;-33
2021/05/05 02:32:57;;;;;;;2.50;1.60;;;18.50;69.40;;;;;;5142387;27;20428;-33
2021/05/05 02:35:27;;;;;;;1.90;1.50;;;18.50;67.70;;;;;;5142762;27;20445;-33
2021/05/05 02:37:59;;;;;;;4.00;1.40;;;18.30;69.20;;;;;;5143270;27;20515;-33
2021/05/05 02:40:29;;;;;;;1.70;1.50;;;18.30;69.10;;;;;;5143774;27;20445;-33
2021/05/05 02:43:01;;;;;;;5.63;1.80;;;18.30;70.20;;;;;;5141535;27;20472;-33
2021/05/05 02:45:31;;;;;;;2.70;1.67;;;18.20;71.00;;;;;;5143307;27;20535;-33
2021/05/05 02:48:02;;;;;;;1.50;1.40;;;18.10;72.20;;;;;;5126852;28;20445;-33
2021/05/05 02:50:32;;;;;;;2.17;1.40;;;18.10;71.90;;;;;;5143402;28;20583;-33
2021/05/05 02:53:03;;;;;;;1.90;1.80;;;18.00;73.00;;;;;;5143598;28;20470;-33
2021/05/05 02:55:34;;;;;;;3.10;2.37;;;18.00;72.40;;;;;;5137828;28;20453;-33
2021/05/05 02:58:04;;;;;;;2.23;1.50;;;17.90;74.40;;;;;;5141598;28;20496;-33
2021/05/05 03:00:34;;;;;;;2.50;1.63;;;17.70;75.90;;;;;;5140646;27;20474;-33
2021/05/05 03:03:04;;;;;;;3.57;1.80;;;17.60;76.70;;;;;;5141744;28;20471;-33
2021/05/05 03:05:34;;;;;;;2.63;1.80;;;17.60;77.30;;;;;;5142422;28;20486;-32
2021/05/05 03:08:06;;;;;;;4.10;1.57;;;17.60;76.20;;;;;;5143252;28;20439;-33
2021/05/05 03:10:36;;;;;;;4.07;2.23;;;17.50;77.50;;;;;;5142960;28;20497;-33
2021/05/05 03:13:06;;;;;;;3.53;1.60;;;17.40;79.40;;;;;;5135636;28;20460;-33
2021/05/05 03:15:37;;;;;;;3.40;1.50;;;17.40;78.60;;;;;;5121159;28;20432;-33
2021/05/05 03:18:07;;;;;;;2.80;1.80;;;17.30;80.00;;;;;;5142760;27;20444;-33
2021/05/05 03:20:37;;;;;;;2.50;1.97;;;17.20;81.20;;;;;;5146204;27;20444;-33
2021/05/05 03:23:08;;;;;;;3.30;2.20;;;17.20;81.40;;;;;;5147541;27;20762;-33
2021/05/05 03:25:40;;;;;;;2.30;1.40;;;17.10;83.30;;;;;;5146241;27;20452;-34
2021/05/05 03:28:10;;;;;;;2.37;2.00;;;17.00;83.80;;;;;;5146708;27;20448;-33
2021/05/05 03:30:40;;;;;;;1.93;1.73;;;16.80;85.70;;;;;;5147795;27;20563;-33
2021/05/05 03:33:10;;;;;;;2.60;2.00;;;16.70;86.50;;;;;;5146833;27;20458;-33
2021/05/05 03:35:40;;;;;;;2.70;1.87;;;16.70;87.00;;;;;;5147952;27;20424;-33
2021/05/05 03:38:11;;;;;;;3.87;2.10;;;16.60;88.10;;;;;;5132456;27;20445;-33
2021/05/05 03:40:42;;;;;;;4.33;2.30;;;16.70;88.40;;;;;;5151140;27;20455;-33
2021/05/05 03:43:12;;;;;;;3.73;2.13;;;16.70;90.30;;;;;;5154398;27;20468;-33
2021/05/05 03:45:43;;;;;;;3.50;1.83;;;16.60;90.60;;;;;;5146911;27;20448;-33
2021/05/05 03:48:13;;;;;;;1.70;1.60;;;16.50;91.00;;;;;;5147360;27;20817;-32
2021/05/05 03:50:43;;;;;;;3.13;1.77;;;16.40;91.60;;;;;;5147216;27;20501;-33
2021/05/05 03:53:15;;;;;;;2.73;2.00;;;16.40;92.10;;;;;;5147134;27;20419;-33
2021/05/05 03:55:45;;;;;;;3.13;1.97;;;16.40;92.70;;;;;;5148457;27;20508;-33
2021/05/05 03:58:15;;;;;;;2.10;1.90;;;16.30;93.90;;;;;;5143242;27;20453;-33
2021/05/05 04:00:45;;;;;;;2.80;2.43;;;16.20;94.80;;;;;;5146243;27;20820;-33
2021/05/05 04:03:15;;;;;;;5.03;2.23;;;16.20;95.20;;;;;;5137182;27;20441;-33
2021/05/05 04:05:45;;;;;;;3.70;2.13;;;16.10;96.10;;;;;;5134168;27;20450;-33
2021/05/05 04:08:16;;;;;;;4.03;1.90;;;16.00;97.20;;;;;;5143771;27;20449;-33
2021/05/05 04:10:46;;;;;;;4.90;2.17;;;15.90;98.10;;;;;;5139753;27;20513;-33
2021/05/05 04:13:16;;;;;;;4.73;2.23;;;15.90;98.80;;;;;;5143815;27;20444;-32
2021/05/05 04:16:03;;;;;;;2.37;2.17;;;15.80;99.20;;;;;;5136228;27;20464;-33
2021/05/05 04:18:50;;;;;;;5.50;2.30;;;15.80;99.30;;;;;;5142813;27;20474;-32
2021/05/05 04:21:38;;;;;;;2.70;2.23;;;15.80;99.80;;;;;;5142733;27;20460;-32
2021/05/05 04:24:26;;;;;;;1.73;1.63;;;15.70;99.90;;;;;;5147132;27;20473;-33
2021/05/05 04:26:57;;;;;;;3.13;1.77;;;15.70;99.90;;;;;;5144268;27;20556;-33
2021/05/05 04:29:27;;;;;;;2.30;1.90;;;15.70;99.90;;;;;;5146075;27;20456;-33
2021/05/05 04:31:58;;;;;;;5.47;2.30;;;15.70;99.90;;;;;;5145702;27;20460;-33
2021/05/05 04:34:28;;;;;;;4.63;2.03;;;15.60;99.90;;;;;;5144911;27;20504;-33
2021/05/05 04:36:59;;;;;;;4.30;2.17;;;15.50;99.90;;;;;;5145663;27;20924;-33
2021/05/05 04:39:32;;;;;;;3.10;2.17;;;15.50;99.90;;;;;;5145935;27;20436;-33
2021/05/05 04:42:04;;;;;;;4.97;2.43;;;15.40;99.90;;;;;;5144029;27;20467;-32
2021/05/05 04:44:34;;;;;;;6.63;2.37;;;15.40;99.90;;;;;;5146733;27;20449;-33
2021/05/05 04:47:05;;;;;;;4.80;1.90;;;15.30;99.90;;;;;;5144698;27;20540;-33
2021/05/05 04:49:35;;;;;;;4.20;1.60;;;15.30;99.90;;;;;;5146340;27;20479;-33
2021/05/05 04:52:05;;;;;;;3.43;2.17;;;15.20;99.90;;;;;;5145646;27;20440;-32
2021/05/05 04:54:36;;;;;;;2.10;1.90;;;15.20;99.90;;;;;;5146394;27;20478;-33
2021/05/05 04:57:07;;;;;;;4.13;1.70;;;15.20;99.90;;;;;;5143993;27;20467;-33
2021/05/05 04:59:37;;;;;;;6.60;2.50;;;15.10;99.90;;;;;;5136225;27;20517;-33
2021/05/05 05:02:08;;;;;;;4.60;1.80;;;15.00;99.90;;;;;;5145936;27;20848;-33
2021/05/05 05:04:39;;;;;;;4.63;2.03;;;15.00;99.90;;;;;;5145462;27;20467;-33
2021/05/05 05:07:09;;;;;;;2.87;2.13;;;15.00;99.90;;;;;;5133557;27;20480;-33
2021/05/05 05:09:42;;;;;;;4.13;2.13;;;14.90;99.90;;;;;;5145931;27;20465;-34
2021/05/05 05:12:12;;;;;;;4.73;2.10;;;14.80;99.90;;;;;;5144188;27;20965;-33
2021/05/05 05:14:42;;;;;;;5.13;1.70;;;14.70;99.90;;;;;;5145433;27;21206;-33
2021/05/05 05:17:12;;;;;;;3.37;2.57;;;14.60;99.90;;;;;;5145240;27;20456;-33
2021/05/05 05:19:43;;;;;;;5.53;1.93;;;14.50;99.90;;;;;;5142209;27;20437;-33
2021/05/05 05:22:13;;;;;;;3.47;2.23;;;14.60;99.90;;;;;;5145080;27;20462;-33
2021/05/05 05:24:45;;;;;;;3.33;1.70;;;14.50;99.90;;;;;;5144328;27;20499;-33
2021/05/05 05:27:15;;;;;;;5.80;2.77;;;14.50;99.90;;;;;;5143456;27;20487;-33
2021/05/05 05:29:45;;;;;;;2.40;2.20;;;14.40;99.90;;;;;;5145111;27;20445;-33
2021/05/05 05:32:15;;;;;;;3.00;1.80;;;14.40;99.90;;;;;;5145516;27;20455;-34
2021/05/05 05:34:46;;;;;;;2.83;2.10;;;14.30;99.90;;;;;;5144787;27;20445;-33
2021/05/05 05:37:16;;;;;;;5.07;2.73;;;14.20;99.90;;;;;;5145217;27;20525;-34
2021/05/05 05:39:47;;;;;;;4.27;2.70;;;14.20;99.90;;;;;;5144914;27;20445;-34
2021/05/05 05:42:17;;;;;;;4.37;2.37;;;14.20;99.90;;;;;;5142806;27;20477;-34
2021/05/05 05:44:48;;;;;;;5.30;2.40;;;14.10;99.90;;;;;;5144587;27;20445;-33
2021/05/05 05:47:18;;;;;;;5.60;1.93;;;14.10;99.90;;;;;;5145226;27;20480;-33
2021/05/05 05:49:48;;;;;;;5.27;2.77;;;14.10;99.90;;;;;;5145748;27;20436;-33
2021/05/05 05:52:19;;;;;;;4.40;2.27;;;14.00;99.90;;;;;;5144481;27;20514;-34
2021/05/05 05:54:50;;;;;;;5.70;2.70;;;14.00;99.90;;;;;;5145111;27;20453;-34
2021/05/05 05:57:20;;;;;;;6.97;2.63;;;13.90;99.90;;;;;;5144005;27;20445;-33
2021/05/05 05:59:50;;;;;;;4.03;2.20;;;13.80;99.90;;;;;;5139379;27;20478;-33
2021/05/05 06:02:20;;;;;;;2.40;1.77;;;13.90;99.90;;;;;;5144283;27;20471;-33
2021/05/05 06:04:51;;;;;;;2.63;1.90;;;13.90;99.90;;;;;;5145163;27;20500;-33
2021/05/05 06:07:21;;;;;;;4.37;1.90;;;13.80;99.90;;;;;;5144268;27;20481;-34
2021/05/05 06:09:52;;;;;;;8.53;2.90;;;13.70;99.90;;;;;;5143768;27;20471;-33
2021/05/05 06:12:22;;;;;;;5.03;1.93;;;13.70;99.90;;;;;;5143764;27;20465;-33
2021/05/05 06:14:52;;;;;;;4.10;2.00;;;13.60;99.90;;;;;;5144461;27;20860;-33
2021/05/05 06:17:22;;;;;;;4.93;2.10;;;13.50;99.90;;;;;;5144324;27;20463;-33
2021/05/05 06:19:52;;;;;;;3.50;2.20;;;13.50;99.90;;;;;;5145287;27;20444;-34
2021/05/05 06:22:22;;;;;;;4.40;2.30;;;13.50;99.90;;;;;;5144092;27;20451;-34
2021/05/05 06:24:53;;;;;;;3.03;2.27;;;13.30;99.90;;;;;;5144373;27;20449;-33
2021/05/05 06:27:23;;;;;;;5.57;2.13;;;13.30;99.90;;;;;;5142901;27;20481;-33
2021/05/05 06:29:53;;;;;;;1.83;1.70;;;13.30;99.90;;;;;;5144256;27;20474;-33
2021/05/05 06:32:23;;;;;;;3.97;2.47;;;13.20;99.90;;;;;;5144619;27;20437;-33
2021/05/05 06:34:54;;;;;;;4.80;2.40;;;13.10;99.90;;;;;;5144437;27;20470;-33
2021/05/05 06:37:24;;;;;;;4.27;2.30;;;13.00;99.90;;;;;;5144201;27;20444;-33
2021/05/05 06:39:57;;;;;;;3.40;2.10;;;12.90;99.90;;;;;;5143713;27;21031;-33
2021/05/05 06:42:27;;;;;;;3.67;2.33;;;12.90;99.90;;;;;;5143248;27;21046;-33
2021/05/05 06:44:58;;;;;;;3.37;2.57;;;12.90;99.90;;;;;;5144216;27;20437;-33
2021/05/05 06:47:28;;;;;;;2.80;2.63;;;12.80;99.90;;;;;;5144038;27;20476;-33
2021/05/05 06:49:59;;;;;;;2.73;2.43;;;12.70;99.90;;;;;;5143970;27;20478;-34
2021/05/05 06:52:29;;;;;;;2.90;2.20;;;12.70;99.90;;;;;;5143785;28;20928;-33
2021/05/05 06:55:00;;;;;;;3.90;2.40;;;12.70;99.90;;;;;;5143602;27;20506;-33
2021/05/05 06:57:30;;;;;;;3.43;2.77;;;12.70;99.90;;;;;;5143332;28;20956;-34
2021/05/05 07:00:00;;;;;;;4.03;2.27;;;12.70;99.90;;;;;;5142278;28;20518;-32
2021/05/05 07:02:30;;;;;;;6.77;2.57;;;12.60;99.90;;;;;;5144389;28;20456;-33
2021/05/05 07:05:00;;;;;;;2.90;1.83;;;12.60;99.90;;;;;;5131441;28;20780;-33
2021/05/05 07:07:30;;;;;;;7.70;2.80;;;12.50;99.90;;;;;;5142952;28;20477;-34
2021/05/05 07:10:01;;;;;;;6.60;2.80;;;12.50;99.90;;;;;;5143877;28;20871;-33
2021/05/05 07:12:32;;;;;;;4.20;2.50;;;12.50;99.90;;;;;;5142962;28;20466;-33
2021/05/05 07:15:02;;;;;;;3.57;2.33;;;12.40;99.90;;;;;;5143980;28;20441;-33
2021/05/05 07:17:32;;;;;;;3.75;2.60;;;12.40;99.90;;;;;;5142781;28;20452;-33
2021/05/05 07:20:02;;;;;;;2.50;2.30;;;12.40;99.90;;;;;;5143564;28;20198;-33
2021/05/05 07:22:32;;;;;;;2.67;2.47;;;12.40;99.90;;;;;;5143723;28;20292;-33
2021/05/05 07:25:03;;;;;;;4.80;2.50;;;12.30;99.90;;;;;;5143138;28;20468;-33
2021/05/05 07:27:33;;;;;;;4.85;2.15;;;12.30;99.90;;;;;;5142160;28;20473;-33
2021/05/05 07:30:04;;;;;;;4.93;2.45;;;12.20;99.90;;;;;;5144134;28;20542;-33
2021/05/05 07:32:34;;;;;;;2.65;2.33;;;12.20;99.90;;;;;;5143961;28;20207;-33
2021/05/05 07:35:09;;;;;;;3.70;2.33;;;12.20;99.90;;;;;;5143998;28;20221;-33
2021/05/05 07:38:10;;;;;;;4.30;2.50;;;12.20;99.90;;;;;;5143222;28;20255;-33
2021/05/05 07:44:28;;;;;;;3.72;2.25;;;12.10;99.90;;;;;;5142497;28;20473;-33
2021/05/05 07:46:49;;;;;;;3.55;2.20;;;12.00;99.90;;;;;;5142105;28;20226;-33
2021/05/05 07:49:19;;;;;;;4.88;2.88;;;11.90;99.90;;;;;;5144237;28;20651;-33
2021/05/05 07:51:48;;;;;;;3.50;2.20;;;11.90;99.90;;;;;;5144034;28;20199;-31
2021/05/05 07:54:18;;;;;;;3.97;2.47;;;11.80;99.90;;;;;;5143568;28;20476;-31
2021/05/05 07:56:48;;;;;;;4.00;2.77;;;11.80;99.90;;;;;;5142268;28;20926;-31
2021/05/05 07:59:16;;;;;;;7.10;3.00;;;11.70;99.90;;;;;;5135214;28;20446;-32
2021/05/05 08:01:48;;;;;;;8.30;3.30;;;11.70;99.90;;;;;;5139235;28;20498;-32
2021/05/05 08:04:18;;;;;;;6.25;2.90;;;11.60;99.90;;;;;;5143486;28;20199;-31
2021/05/05 08:06:49;;;;;;;6.57;2.90;;;11.60;99.90;;;;;;5144319;27;20240;-32
2021/05/05 08:09:21;;;;;;;6.50;3.20;;;11.60;99.90;;;;;;5147159;27;20199;-33
2021/05/05 08:11:53;;;;;;;5.17;2.90;;;11.50;99.90;;;;;;5146044;27;20452;-33
2021/05/05 08:14:23;;;;;;;5.33;3.23;;;11.40;99.90;;;;;;5147288;27;20453;-33
2021/05/05 08:16:53;;;;;;;9.52;2.80;;;11.30;99.90;;;;;;5146160;27;20480;-32
2021/05/05 08:19:23;;;;;;;6.80;2.40;;;11.30;99.90;;;;;;5147327;27;20234;-33
2021/05/05 08:21:53;;;;;;;4.00;2.57;;;11.40;99.90;;;;;;5147175;27;20213;-33
2021/05/05 08:24:23;;;;;;;9.57;2.42;;;11.30;99.90;;;;;;5146521;27;20934;-34
2021/05/05 08:26:55;;;;;;;3.35;2.75;;;11.10;99.90;;;;;;5145063;27;20215;-34
2021/05/05 08:29:27;;;;;;;3.92;2.78;;;11.10;99.90;;;;;;5146574;27;20203;-33
2021/05/05 08:31:57;;;;;;;4.80;3.38;;;11.10;99.90;;;;;;5146471;27;20658;-33
2021/05/05 08:34:28;;;;;;;7.07;2.80;;;11.00;99.90;;;;;;5146877;27;20191;-32
2021/05/05 08:36:58;;;;;;;7.80;2.45;;;11.10;99.90;;;;;;5146301;27;20203;-34
2021/05/05 08:39:29;;;;;;;3.60;2.35;;;11.00;99.90;;;;;;5146469;27;20294;-33
2021/05/05 08:42:01;;;;;;;6.13;2.60;;;11.00;99.90;;;;;;5145406;27;20203;-33
2021/05/05 08:44:32;;;;;;;2.70;2.50;;;11.00;99.90;;;;;;5146761;27;20228;-33
2021/05/05 08:47:03;;;;;;;4.53;2.70;;;11.00;99.90;;;;;;5145670;27;20323;-33
2021/05/05 08:49:33;;;;;;;3.78;2.80;;;10.90;99.90;;;;;;5146281;27;20198;-33
2021/05/05 08:52:04;;;;;;;4.57;2.42;;;10.90;99.90;;;;;;5146386;27;20196;-33
2021/05/05 08:54:34;;;;;;;5.10;2.53;;;10.90;99.90;;;;;;5146303;27;20202;-34
2021/05/05 08:57:06;;;;;;;2.50;2.30;;;10.90;99.90;;;;;;5144321;27;20199;-33
2021/05/05 08:59:37;;;;;;;5.95;3.00;;;10.80;99.90;;;;;;5137649;27;20208;-33
2021/05/05 09:02:07;;;;;;;2.47;2.28;;;10.80;99.90;;;;;;5146104;27;20220;-33
2021/05/05 09:04:37;;;;;;;3.38;2.65;;;10.80;99.90;;;;;;5146667;27;20560;-33
2021/05/05 09:07:07;;;;;;;3.30;2.58;;;10.70;99.90;;;;;;5144666;27;20218;-33
2021/05/05 09:09:39;;;;;;;3.05;2.78;;;10.70;99.90;;;;;;5145792;27;20200;-33
2021/05/05 09:12:21;;;;;;;6.60;2.65;;;10.70;99.90;;;;;;5145123;27;20195;-33
2021/05/05 09:15:04;;;;;;;5.90;3.10;;;10.60;99.90;;;;;;5146112;27;20207;-33
2021/05/05 09:17:36;;;;;;;3.53;2.70;;;10.60;99.90;;;;;;5141333;27;20232;-33
2021/05/05 09:20:18;;;;;;;5.38;3.00;;;10.60;99.90;;;;;;5145226;27;20192;-33
2021/05/05 09:22:51;;;;;;;3.55;2.80;;;10.60;99.90;;;;;;5145787;27;20276;-33
2021/05/05 09:25:24;;;;;;;6.82;2.90;;;10.50;99.90;;;;;;5144734;27;20214;-33
2021/05/05 09:28:26;;;;;;;4.15;3.00;;;10.50;99.90;;;;;;5143978;27;20223;-33
2021/05/05 09:31:11;;;;;;;3.42;3.13;;;10.50;99.90;;;;;;5061767;28;20201;-33
2021/05/05 09:33:45;;;;;;;6.20;2.80;;;10.50;99.90;;;;;;5061198;28;20199;-33
2021/05/05 09:36:19;;;;;;;4.47;3.20;;;10.50;99.90;;;;;;5047258;28;20205;-33
2021/05/05 09:38:51;;;;;;;5.07;3.78;;;10.40;99.90;;;;;;5061383;28;20244;-33
2021/05/05 09:41:26;;;;;;;5.20;3.60;;;10.40;99.90;;;;;;5061480;28;20202;-32
2021/05/05 09:44:15;;;;;;;4.82;3.42;;;10.40;99.90;;;;;;5061463;28;20229;-33
2021/05/05 09:46:47;;;;;;;4.28;3.00;;;10.30;99.90;;;;;;5060483;28;20224;-33
2021/05/05 09:49:26;;;;;;;5.25;3.60;;;10.30;99.90;;;;;;5061759;28;20214;-33
2021/05/05 09:51:58;;;;;;;4.18;3.13;;;10.30;99.90;;;;;;5060456;28;20205;-33
2021/05/05 09:54:31;;;;;;;4.60;3.90;;;10.30;99.90;;;;;;5061164;28;20206;-33
2021/05/05 09:57:19;;;;;;;5.88;3.75;;;10.30;99.90;;;;;;5059270;28;20213;-33
2021/05/05 10:00:03;;;;;;;4.28;3.88;;;10.30;99.90;;;;;;5052770;28;20221;-33
2021/05/05 10:02:41;;;;;;;3.95;3.55;;;10.30;99.90;;;;;;5046809;28;20206;-33
2021/05/05 10:05:14;;;;;;;4.20;3.08;;;10.30;99.90;;;;;;5110383;27;20218;-33
2021/05/05 10:07:58;;;;;;;5.38;3.88;;;10.30;99.90;;;;;;5143871;27;20227;-33
2021/05/05 10:10:29;;;;;;;4.63;4.22;;;10.30;99.90;;;;;;5132866;27;20203;-33
2021/05/05 10:13:02;;;;;;;4.30;3.70;;;10.30;99.90;;;;;;5143660;27;20199;-33
2021/05/05 10:15:35;;;;;;;6.00;3.90;;;10.30;99.90;;;;;;5143878;27;20248;-33
2021/05/05 10:18:12;;;;;;;6.05;4.05;;;10.20;99.90;;;;;;5143670;27;20469;-33
2021/05/05 10:20:45;;;;;;;4.75;4.15;;;10.20;99.90;;;;;;5143529;27;20297;-33
2021/05/05 10:23:17;;;;;;;3.88;3.47;;;10.10;99.90;;;;;;5143951;27;20290;-33
2021/05/05 10:25:50;;;;;;;7.32;3.80;;;10.00;99.90;;;;;;5144177;27;20203;-33
2021/05/05 10:28:20;;;;;;;5.82;4.20;;;9.90;99.90;;;;;;5142618;27;20310;-33
2021/05/05 10:30:53;;;;;;;5.60;3.50;;;9.90;99.90;;;;;;5143513;27;20267;-33
2021/05/05 10:33:26;;;;;;;7.63;4.53;;;9.90;99.90;;;;;;5144234;27;20260;-33
2021/05/05 10:35:56;;;;;;;6.57;3.28;;;9.90;99.90;;;;;;5144573;27;20213;-33
2021/05/05 10:38:36;;;;;;;4.78;3.42;;;9.80;99.90;;;;;;5143764;27;20252;-33
2021/05/05 10:41:11;;;;;;;6.07;3.92;;;9.70;99.90;;;;;;5143958;27;20293;-32
2021/05/05 10:43:49;;;;;;;6.88;4.10;;;9.70;99.90;;;;;;5136966;27;20218;-33
2021/05/05 10:46:29;;;;;;;4.55;3.53;;;9.70;99.90;;;;;;5143109;27;20622;-33
2021/05/05 10:49:13;;;;;;;5.03;3.33;;;9.70;99.90;;;;;;5143809;27;20321;-33
2021/05/05 10:52:03;;;;;;;5.43;3.63;;;9.70;99.90;;;;;;5144242;27;20209;-33
2021/05/05 10:54:53;;;;;;;6.03;3.60;;;9.60;99.90;;;;;;5144290;28;20205;-33
2021/05/05 10:57:24;;;;;;;12.43;4.03;;;9.60;99.90;;;;;;5142048;28;20267;-33
2021/05/05 11:00:13;;;;;;;4.85;4.45;;;9.50;99.90;;;;;;5135709;28;20206;-33
2021/05/05 11:02:58;;;;;;;7.03;3.55;;;9.50;99.90;;;;;;5143781;28;20233;-33
2021/05/05 11:05:38;;;;;;;5.85;3.58;;;9.40;99.90;;;;;;5142994;28;20203;-33
2021/05/05 11:08:09;;;;;;;7.97;4.10;;;9.40;99.90;;;;;;5143223;28;20246;-33
2021/05/05 11:10:51;;;;;;;6.40;4.07;;;9.30;99.90;;;;;;5143685;28;20199;-33
2021/05/05 11:13:42;;;;;;;3.75;2.95;;;9.30;99.90;;;;;;5142303;28;20263;-33
2021/05/05 11:16:12;;;;;;;7.70;3.53;;;9.30;99.90;;;;;;5143629;28;20184;-32
2021/05/05 11:18:45;;;;;;;6.47;3.85;;;9.30;99.90;;;;;;5127226;28;20259;-33
2021/05/05 11:21:40;;;;;;;5.45;3.85;;;9.30;99.90;;;;;;5143599;28;20195;-33
2021/05/05 11:24:30;;;;;;;6.18;3.85;;;9.20;99.90;;;;;;5143679;28;20203;-33
2021/05/05 11:27:01;;;;;;;6.95;3.38;;;9.10;99.90;;;;;;5142483;28;20191;-33
2021/05/05 11:29:32;;;;;;;4.32;3.50;;;9.10;99.90;;;;;;5143603;28;20635;-33
2021/05/05 11:32:05;;;;;;;4.25;3.30;;;9.10;99.90;;;;;;5138525;28;20195;-32
2021/05/05 11:34:39;;;;;;;5.22;3.28;;;9.10;99.90;;;;;;5142623;28;20584;-33
2021/05/05 11:37:21;;;;;;;5.97;4.30;;;9.10;99.90;;;;;;5143490;28;20248;-33
2021/05/05 11:39:53;;;;;;;3.83;3.40;;;9.20;99.90;;;;;;5144061;28;20202;-33
2021/05/05 11:42:25;;;;;;;6.57;4.07;;;9.20;99.90;;;;;;5144886;27;20227;-33
2021/05/05 11:45:13;;;;;;;5.05;3.67;;;9.10;99.90;;;;;;5141262;27;20200;-33
2021/05/05 11:47:46;;;;;;;6.82;3.47;;;9.10;99.90;;;;;;5146814;27;20222;-32
2021/05/05 11:50:20;;;;;;;5.07;3.83;;;9.10;99.90;;;;;;5147284;27;20222;-33
2021/05/05 11:52:52;;;;;;;4.63;3.58;;;9.00;99.90;;;;;;5146824;27;20202;-33
2021/05/05 11:55:23;;;;;;;4.53;3.63;;;9.00;99.90;;;;;;5147271;27;20187;-33
2021/05/05 11:57:55;;;;;;;5.50;4.40;;;9.00;99.90;;;;;;5146148;27;20221;-33
2021/05/05 12:00:29;;;;;;;5.63;4.28;;;8.90;99.90;;;;;;5144790;27;20203;-33
2021/05/05 12:03:00;;;;;;;6.40;3.75;;;9.00;99.90;;;;;;5142133;27;20203;-33
2021/05/05 12:05:33;;;;;;;4.80;4.20;;;8.90;99.90;;;;;;5145960;27;20207;-33
2021/05/05 12:08:05;;;;;;;8.02;4.10;;;9.00;99.90;;;;;;5146869;27;20658;-32
2021/05/05 12:10:39;;;;;;;5.85;4.53;;;8.90;99.90;;;;;;5147511;27;20219;-33
2021/05/05 12:13:10;;;;;;;13.18;4.55;;;8.90;99.90;;;;;;5130479;27;20680;-33
2021/05/05 12:15:48;;;;;;;8.80;4.50;;;8.90;99.90;;;;;;5146611;27;20214;-33
2021/05/05 12:18:22;;;;;;;7.07;4.43;;;8.90;99.90;;;;;;5144491;27;20203;-33
2021/05/05 12:20:54;;;;;;;8.07;4.38;;;8.90;99.90;;;;;;5146512;27;20199;-33
2021/05/05 12:23:24;;;;;;;5.43;4.40;;;8.80;99.90;;;;;;5146589;27;20285;-32
2021/05/05 12:25:54;;;;;;;5.13;4.30;;;8.70;99.90;;;;;;5145820;27;20244;-33
2021/05/05 12:28:24;;;;;;;8.70;4.63;;;8.70;99.90;;;;;;5145412;27;20249;-33
2021/05/05 12:30:55;;;;;;;5.90;4.82;;;8.80;99.90;;;;;;5145888;27;20203;-33
2021/05/05 12:33:37;;;;;;;6.55;4.15;;;8.70;99.90;;;;;;5145998;27;20196;-33
2021/05/05 12:36:12;;;;;;;6.85;5.25;;;8.70;99.90;;;;;;5145699;27;20254;-33
2021/05/05 12:38:43;;;;;;;4.82;4.40;;;8.70;99.90;;;;;;5141605;27;20500;-32
2021/05/05 12:41:14;;;;;;;6.38;4.63;;;8.70;99.90;;;;;;5146450;27;20284;-33
2021/05/05 12:43:48;;;;;;;5.10;4.05;;;8.70;99.90;;;;;;5145650;27;20223;-33
2021/05/05 12:46:25;;;;;;;5.53;4.13;;;8.70;99.90;;;;;;5145679;27;20369;-32
2021/05/05 12:48:57;;;;;;;6.60;4.72;;;8.60;99.90;;;;;;5144582;27;20280;-33
2021/05/05 12:51:37;;;;;;;4.80;4.40;;;8.60;99.90;;;;;;5145940;27;20203;-32
2021/05/05 12:54:07;;;;;;;5.80;4.60;;;8.70;99.90;;;;;;5146025;27;20252;-32
2021/05/05 12:56:43;;;;;;;9.65;5.82;;;8.70;99.90;;;;;;5143774;27;20211;-31
2021/05/05 12:59:16;;;;;;;5.22;4.65;;;8.70;99.90;;;;;;5146002;27;20199;-33
2021/05/05 13:01:46;;;;;;;6.28;5.00;;;8.70;99.90;;;;;;5145628;27;20208;-33
2021/05/05 13:04:19;;;;;;;7.07;5.00;;;8.80;99.90;;;;;;5145579;27;20203;-33
2021/05/05 13:06:50;;;;;;;7.82;5.82;;;8.80;99.90;;;;;;5145180;27;20665;-33
2021/05/05 13:09:24;;;;;;;6.15;4.63;;;8.90;99.90;;;;;;5145755;27;20223;-33
2021/05/05 13:12:13;;;;;;;5.85;4.85;;;8.80;99.90;;;;;;5144568;27;20241;-32
2021/05/05 13:14:52;;;;;;;6.45;4.80;;;8.90;99.90;;;;;;5145200;27;20207;-33
2021/05/05 13:17:41;;;;;;;6.13;5.40;;;8.90;99.90;;;;;;5145684;27;20191;-32
2021/05/05 13:20:29;;;;;;;6.25;5.20;;;9.00;99.90;;;;;;5145295;27;20207;-33